Aloha, Washington
Current Conditions -  °F | °C
As of 12:53 AM on Thursday 23 Oct 2014 (Local Time) from KHQM Reporting Station
Scattered Clouds Scattered Clouds  
Wind Chill: 55°   Ceiling: Unl
Heat Index: 55°   Visibility: 8mi
Dew Point: 52°   Wind: 8mph
Humidity: 89%   Direction: 150°SSE
Pressure: 29.7"   Gusts: NA
Location:  47.1899°N, 124.112°W
Report Text: KHQM 230753Z AUTO 15007KT 8SM FEW029 SCT038 13/11 A2970 RMK AO2 SLP061 T01280111 401500128
Loading
Personal Weather Stations






























Interactive Weather Map
Tropical Storm Tracking
New forecast layout! Learn more

10-Day Weather Forecast

Advertisements
Track Severe Weather on mobile